sensor_id;sensor_type;location;lat;lon;timestamp;temperature;humidity
54485;DHT22;45006;56.958;24.166;2023-02-01T00:00:32;23.00;69.80
54485;DHT22;45006;56.958;24.166;2023-02-01T00:03:01;23.00;70.10
54485;DHT22;45006;56.958;24.166;2023-02-01T00:05:30;23.00;70.00
54485;DHT22;45006;56.958;24.166;2023-02-01T00:07:56;23.00;70.20
54485;DHT22;45006;56.958;24.166;2023-02-01T00:10:23;23.00;70.10
54485;DHT22;45006;56.958;24.166;2023-02-01T00:12:50;23.00;70.10
54485;DHT22;45006;56.958;24.166;2023-02-01T00:15:17;23.00;69.70
54485;DHT22;45006;56.958;24.166;2023-02-01T00:17:44;23.00;69.70
54485;DHT22;45006;56.958;24.166;2023-02-01T00:20:11;23.00;69.20
54485;DHT22;45006;56.958;24.166;2023-02-01T00:22:38;23.00;69.40
54485;DHT22;45006;56.958;24.166;2023-02-01T00:25:11;23.00;69.90
54485;DHT22;45006;56.958;24.166;2023-02-01T00:27:38;23.00;69.60
54485;DHT22;45006;56.958;24.166;2023-02-01T00:30:05;23.00;69.90
54485;DHT22;45006;56.958;24.166;2023-02-01T00:32:32;23.00;70.00
54485;DHT22;45006;56.958;24.166;2023-02-01T00:35:04;23.00;69.90
54485;DHT22;45006;56.958;24.166;2023-02-01T00:37:30;23.00;70.20
54485;DHT22;45006;56.958;24.166;2023-02-01T00:39:57;23.00;69.80
54485;DHT22;45006;56.958;24.166;2023-02-01T00:42:28;23.00;70.30
54485;DHT22;45006;56.958;24.166;2023-02-01T00:44:55;23.00;70.10
54485;DHT22;45006;56.958;24.166;2023-02-01T00:47:22;23.00;69.80
54485;DHT22;45006;56.958;24.166;2023-02-01T00:49:49;23.00;69.90
54485;DHT22;45006;56.958;24.166;2023-02-01T00:52:15;23.00;69.30
54485;DHT22;45006;56.958;24.166;2023-02-01T00:54:42;23.00;69.20
54485;DHT22;45006;56.958;24.166;2023-02-01T00:57:09;23.00;69.70
54485;DHT22;45006;56.958;24.166;2023-02-01T00:59:36;23.00;69.80
54485;DHT22;45006;56.958;24.166;2023-02-01T01:02:02;23.00;70.20
54485;DHT22;45006;56.958;24.166;2023-02-01T01:04:29;23.00;70.30
54485;DHT22;45006;56.958;24.166;2023-02-01T01:06:56;23.00;70.30
54485;DHT22;45006;56.958;24.166;2023-02-01T01:09:23;23.00;70.40
54485;DHT22;45006;56.958;24.166;2023-02-01T01:11:49;23.00;70.20
54485;DHT22;45006;56.958;24.166;2023-02-01T01:14:17;23.00;70.90
54485;DHT22;45006;56.958;24.166;2023-02-01T01:16:44;23.00;70.40
54485;DHT22;45006;56.958;24.166;2023-02-01T01:19:11;23.00;70.10
54485;DHT22;45006;56.958;24.166;2023-02-01T01:21:38;23.00;69.80
54485;DHT22;45006;56.958;24.166;2023-02-01T01:24:05;23.00;70.00
54485;DHT22;45006;56.958;24.166;2023-02-01T01:26:32;23.10;70.00
54485;DHT22;45006;56.958;24.166;2023-02-01T01:28:59;23.00;69.80
54485;DHT22;45006;56.958;24.166;2023-02-01T01:31:27;23.10;70.00
54485;DHT22;45006;56.958;24.166;2023-02-01T01:33:55;23.00;70.00
54485;DHT22;45006;56.958;24.166;2023-02-01T01:36:25;23.00;70.00
54485;DHT22;45006;56.958;24.166;2023-02-01T01:38:52;23.00;70.00
54485;DHT22;45006;56.958;24.166;2023-02-01T01:41:20;23.00;69.80
54485;DHT22;45006;56.958;24.166;2023-02-01T01:46:28;23.00;69.90
54485;DHT22;45006;56.958;24.166;2023-02-01T01:51:24;23.00;69.50
54485;DHT22;45006;56.958;24.166;2023-02-01T01:53:54;23.00;69.60
54485;DHT22;45006;56.958;24.166;2023-02-01T01:56:22;23.00;69.50
54485;DHT22;45006;56.958;24.166;2023-02-01T01:58:49;23.00;69.40
54485;DHT22;45006;56.958;24.166;2023-02-01T02:01:16;23.00;69.40
54485;DHT22;45006;56.958;24.166;2023-02-01T02:03:43;23.00;69.10
54485;DHT22;45006;56.958;24.166;2023-02-01T02:06:19;23.10;69.20
54485;DHT22;45006;56.958;24.166;2023-02-01T02:08:49;23.10;69.30
54485;DHT22;45006;56.958;24.166;2023-02-01T02:11:16;23.10;69.10
54485;DHT22;45006;56.958;24.166;2023-02-01T02:13:44;23.10;68.60
54485;DHT22;45006;56.958;24.166;2023-02-01T02:16:20;23.00;68.80
54485;DHT22;45006;56.958;24.166;2023-02-01T02:29:58;23.10;68.90
54485;DHT22;45006;56.958;24.166;2023-02-01T02:41:31;23.10;68.80
54485;DHT22;45006;56.958;24.166;2023-02-01T02:43:24;23.10;68.60
54485;DHT22;45006;56.958;24.166;2023-02-01T02:46:19;23.10;68.70
54485;DHT22;45006;56.958;24.166;2023-02-01T02:49:13;23.00;68.10
54485;DHT22;45006;56.958;24.166;2023-02-01T02:51:46;23.10;68.50
54485;DHT22;45006;56.958;24.166;2023-02-01T02:54:35;23.10;68.50
54485;DHT22;45006;56.958;24.166;2023-02-01T03:00:03;23.10;68.40
54485;DHT22;45006;56.958;24.166;2023-02-01T03:02:50;23.10;68.10
54485;DHT22;45006;56.958;24.166;2023-02-01T03:05:37;23.10;68.00
54485;DHT22;45006;56.958;24.166;2023-02-01T03:08:10;23.10;68.90
54485;DHT22;45006;56.958;24.166;2023-02-01T03:10:42;23.10;67.80
54485;DHT22;45006;56.958;24.166;2023-02-01T03:15:51;23.10;68.10
54485;DHT22;45006;56.958;24.166;2023-02-01T03:18:26;23.10;68.40
54485;DHT22;45006;56.958;24.166;2023-02-01T03:20:55;23.10;68.30
54485;DHT22;45006;56.958;24.166;2023-02-01T03:23:23;23.10;68.20
54485;DHT22;45006;56.958;24.166;2023-02-01T03:25:52;23.10;68.30
54485;DHT22;45006;56.958;24.166;2023-02-01T03:28:19;23.10;68.30
54485;DHT22;45006;56.958;24.166;2023-02-01T03:30:48;23.10;68.30
54485;DHT22;45006;56.958;24.166;2023-02-01T03:33:17;23.10;68.20
54485;DHT22;45006;56.958;24.166;2023-02-01T03:38:30;23.10;68.20
54485;DHT22;45006;56.958;24.166;2023-02-01T03:43:36;23.10;68.10
54485;DHT22;45006;56.958;24.166;2023-02-01T03:46:08;23.10;68.10
54485;DHT22;45006;56.958;24.166;2023-02-01T03:48:36;23.10;67.60
54485;DHT22;45006;56.958;24.166;2023-02-01T03:51:04;23.10;67.30
54485;DHT22;45006;56.958;24.166;2023-02-01T03:53:31;23.10;68.00
54485;DHT22;45006;56.958;24.166;2023-02-01T03:55:59;23.10;67.90
54485;DHT22;45006;56.958;24.166;2023-02-01T03:58:26;23.10;67.70
54485;DHT22;45006;56.958;24.166;2023-02-01T04:00:54;23.10;67.90
54485;DHT22;45006;56.958;24.166;2023-02-01T04:03:21;23.10;67.60
54485;DHT22;45006;56.958;24.166;2023-02-01T04:05:49;23.10;67.40
54485;DHT22;45006;56.958;24.166;2023-02-01T04:08:15;23.10;67.30
54485;DHT22;45006;56.958;24.166;2023-02-01T04:10:42;23.10;67.50
54485;DHT22;45006;56.958;24.166;2023-02-01T04:13:10;23.10;67.60
54485;DHT22;45006;56.958;24.166;2023-02-01T04:15:37;23.10;67.50
54485;DHT22;45006;56.958;24.166;2023-02-01T04:18:04;23.10;67.60
54485;DHT22;45006;56.958;24.166;2023-02-01T04:20:31;23.10;67.50
54485;DHT22;45006;56.958;24.166;2023-02-01T04:22:58;23.10;67.30
54485;DHT22;45006;56.958;24.166;2023-02-01T04:25:25;23.10;67.50
54485;DHT22;45006;56.958;24.166;2023-02-01T04:27:52;23.10;67.50
54485;DHT22;45006;56.958;24.166;2023-02-01T04:30:18;23.10;68.10
54485;DHT22;45006;56.958;24.166;2023-02-01T04:32:45;23.10;67.20
54485;DHT22;45006;56.958;24.166;2023-02-01T04:35:12;23.10;67.20
54485;DHT22;45006;56.958;24.166;2023-02-01T04:37:39;23.10;67.20
54485;DHT22;45006;56.958;24.166;2023-02-01T04:40:06;23.10;67.20
54485;DHT22;45006;56.958;24.166;2023-02-01T04:42:33;23.10;67.20
54485;DHT22;45006;56.958;24.166;2023-02-01T04:44:59;23.10;67.10
54485;DHT22;45006;56.958;24.166;2023-02-01T04:47:26;23.10;67.10
54485;DHT22;45006;56.958;24.166;2023-02-01T04:49:53;23.10;67.10
54485;DHT22;45006;56.958;24.166;2023-02-01T04:52:19;23.10;66.90
54485;DHT22;45006;56.958;24.166;2023-02-01T04:54:46;23.10;66.90
54485;DHT22;45006;56.958;24.166;2023-02-01T04:57:13;23.10;66.90
54485;DHT22;45006;56.958;24.166;2023-02-01T04:59:41;23.10;66.80
54485;DHT22;45006;56.958;24.166;2023-02-01T05:02:08;23.10;66.50
54485;DHT22;45006;56.958;24.166;2023-02-01T05:04:34;23.10;66.50
54485;DHT22;45006;56.958;24.166;2023-02-01T05:07:01;23.10;66.30
54485;DHT22;45006;56.958;24.166;2023-02-01T05:09:28;23.10;65.90
54485;DHT22;45006;56.958;24.166;2023-02-01T05:11:55;23.10;66.10
54485;DHT22;45006;56.958;24.166;2023-02-01T05:14:40;23.10;66.40
54485;DHT22;45006;56.958;24.166;2023-02-01T05:17:07;23.10;66.10
54485;DHT22;45006;56.958;24.166;2023-02-01T05:19:33;23.10;66.20
54485;DHT22;45006;56.958;24.166;2023-02-01T05:22:00;23.10;66.20
54485;DHT22;45006;56.958;24.166;2023-02-01T05:24:27;23.10;66.70
54485;DHT22;45006;56.958;24.166;2023-02-01T05:26:56;23.10;66.80
54485;DHT22;45006;56.958;24.166;2023-02-01T05:29:23;23.10;66.90
54485;DHT22;45006;56.958;24.166;2023-02-01T05:31:59;23.10;67.10
54485;DHT22;45006;56.958;24.166;2023-02-01T05:34:39;23.10;67.40
54485;DHT22;45006;56.958;24.166;2023-02-01T05:37:06;23.10;67.70
54485;DHT22;45006;56.958;24.166;2023-02-01T05:39:33;23.10;67.90
54485;DHT22;45006;56.958;24.166;2023-02-01T05:42:00;23.10;68.00
54485;DHT22;45006;56.958;24.166;2023-02-01T05:44:27;23.10;68.20
54485;DHT22;45006;56.958;24.166;2023-02-01T05:46:53;23.10;68.40
54485;DHT22;45006;56.958;24.166;2023-02-01T05:49:20;23.10;68.50
54485;DHT22;45006;56.958;24.166;2023-02-01T05:51:47;23.10;68.80
54485;DHT22;45006;56.958;24.166;2023-02-01T05:54:14;23.10;69.00
54485;DHT22;45006;56.958;24.166;2023-02-01T05:56:41;23.10;69.20
54485;DHT22;45006;56.958;24.166;2023-02-01T05:59:10;23.10;69.30
54485;DHT22;45006;56.958;24.166;2023-02-01T06:01:37;23.10;69.40
54485;DHT22;45006;56.958;24.166;2023-02-01T06:04:04;23.10;69.50
54485;DHT22;45006;56.958;24.166;2023-02-01T06:06:31;23.10;69.60
54485;DHT22;45006;56.958;24.166;2023-02-01T06:08:57;23.10;69.60
54485;DHT22;45006;56.958;24.166;2023-02-01T06:11:25;23.10;69.60
54485;DHT22;45006;56.958;24.166;2023-02-01T06:13:59;23.10;69.70
54485;DHT22;45006;56.958;24.166;2023-02-01T06:16:26;23.10;69.90
54485;DHT22;45006;56.958;24.166;2023-02-01T06:18:52;23.20;70.10
54485;DHT22;45006;56.958;24.166;2023-02-01T06:21:20;23.20;70.10
54485;DHT22;45006;56.958;24.166;2023-02-01T06:23:51;23.20;70.10
54485;DHT22;45006;56.958;24.166;2023-02-01T06:26:18;23.20;70.40
54485;DHT22;45006;56.958;24.166;2023-02-01T06:28:45;23.20;70.30
54485;DHT22;45006;56.958;24.166;2023-02-01T06:31:12;23.20;70.40
54485;DHT22;45006;56.958;24.166;2023-02-01T06:33:39;23.20;70.60
54485;DHT22;45006;56.958;24.166;2023-02-01T06:36:06;23.20;71.30
54485;DHT22;45006;56.958;24.166;2023-02-01T06:38:33;23.20;70.80
54485;DHT22;45006;56.958;24.166;2023-02-01T06:41:03;23.20;70.90
54485;DHT22;45006;56.958;24.166;2023-02-01T06:43:30;23.20;70.80
54485;DHT22;45006;56.958;24.166;2023-02-01T06:46:02;23.20;70.90
54485;DHT22;45006;56.958;24.166;2023-02-01T06:48:29;23.20;71.00
54485;DHT22;45006;56.958;24.166;2023-02-01T06:50:56;23.20;71.10
54485;DHT22;45006;56.958;24.166;2023-02-01T06:53:23;23.20;71.10
54485;DHT22;45006;56.958;24.166;2023-02-01T06:58:19;23.20;71.20
54485;DHT22;45006;56.958;24.166;2023-02-01T07:00:46;23.20;71.40
54485;DHT22;45006;56.958;24.166;2023-02-01T07:03:13;23.20;71.50
54485;DHT22;45006;56.958;24.166;2023-02-01T07:05:40;23.20;71.50
54485;DHT22;45006;56.958;24.166;2023-02-01T07:08:07;23.20;71.50
54485;DHT22;45006;56.958;24.166;2023-02-01T07:10:34;23.20;71.60
54485;DHT22;45006;56.958;24.166;2023-02-01T07:13:01;23.20;71.60
54485;DHT22;45006;56.958;24.166;2023-02-01T07:15:28;23.20;71.60
54485;DHT22;45006;56.958;24.166;2023-02-01T07:17:54;23.20;71.70
54485;DHT22;45006;56.958;24.166;2023-02-01T07:20:22;23.20;71.80
54485;DHT22;45006;56.958;24.166;2023-02-01T07:22:54;23.20;71.80
54485;DHT22;45006;56.958;24.166;2023-02-01T07:25:20;23.30;71.90
54485;DHT22;45006;56.958;24.166;2023-02-01T07:27:47;23.30;71.90
54485;DHT22;45006;56.958;24.166;2023-02-01T07:30:14;23.20;71.90
54485;DHT22;45006;56.958;24.166;2023-02-01T07:32:41;23.30;71.90
54485;DHT22;45006;56.958;24.166;2023-02-01T07:35:08;23.30;72.00
54485;DHT22;45006;56.958;24.166;2023-02-01T07:37:35;23.20;72.00
54485;DHT22;45006;56.958;24.166;2023-02-01T07:40:02;23.30;72.10
54485;DHT22;45006;56.958;24.166;2023-02-01T07:42:29;23.30;72.20
54485;DHT22;45006;56.958;24.166;2023-02-01T07:44:55;23.30;72.20
54485;DHT22;45006;56.958;24.166;2023-02-01T07:47:26;23.30;72.20
54485;DHT22;45006;56.958;24.166;2023-02-01T07:49:53;23.30;72.20
54485;DHT22;45006;56.958;24.166;2023-02-01T07:52:20;23.30;72.20
54485;DHT22;45006;56.958;24.166;2023-02-01T07:54:46;23.30;72.20
54485;DHT22;45006;56.958;24.166;2023-02-01T07:57:13;23.30;72.20
54485;DHT22;45006;56.958;24.166;2023-02-01T07:59:40;23.30;72.40
54485;DHT22;45006;56.958;24.166;2023-02-01T08:02:26;23.30;72.50
54485;DHT22;45006;56.958;24.166;2023-02-01T08:04:53;23.30;72.40
54485;DHT22;45006;56.958;24.166;2023-02-01T08:07:20;23.30;72.50
54485;DHT22;45006;56.958;24.166;2023-02-01T08:09:48;23.30;72.40
54485;DHT22;45006;56.958;24.166;2023-02-01T08:12:15;23.30;72.70
54485;DHT22;45006;56.958;24.166;2023-02-01T08:14:42;23.30;72.70
54485;DHT22;45006;56.958;24.166;2023-02-01T08:17:08;23.30;72.70
54485;DHT22;45006;56.958;24.166;2023-02-01T08:19:35;23.30;72.90
54485;DHT22;45006;56.958;24.166;2023-02-01T08:22:02;23.30;73.00
54485;DHT22;45006;56.958;24.166;2023-02-01T08:24:33;23.30;73.00
54485;DHT22;45006;56.958;24.166;2023-02-01T08:27:01;23.30;73.00
54485;DHT22;45006;56.958;24.166;2023-02-01T08:29:28;23.30;73.00
54485;DHT22;45006;56.958;24.166;2023-02-01T08:31:54;23.30;73.10
54485;DHT22;45006;56.958;24.166;2023-02-01T08:34:21;23.30;73.20
54485;DHT22;45006;56.958;24.166;2023-02-01T08:36:49;23.30;73.40
54485;DHT22;45006;56.958;24.166;2023-02-01T08:39:15;23.30;73.40
54485;DHT22;45006;56.958;24.166;2023-02-01T08:41:42;23.30;73.40
54485;DHT22;45006;56.958;24.166;2023-02-01T08:44:29;23.30;73.50
54485;DHT22;45006;56.958;24.166;2023-02-01T08:46:55;23.30;73.10
54485;DHT22;45006;56.958;24.166;2023-02-01T08:49:22;23.30;63.60
54485;DHT22;45006;56.958;24.166;2023-02-01T08:51:49;23.30;62.50
54485;DHT22;45006;56.958;24.166;2023-02-01T08:54:15;23.30;62.00
54485;DHT22;45006;56.958;24.166;2023-02-01T08:56:42;23.30;62.60
54485;DHT22;45006;56.958;24.166;2023-02-01T08:59:09;23.30;62.80
54485;DHT22;45006;56.958;24.166;2023-02-01T09:01:35;23.30;62.90
54485;DHT22;45006;56.958;24.166;2023-02-01T09:04:02;23.30;62.80
54485;DHT22;45006;56.958;24.166;2023-02-01T09:06:29;23.30;62.90
54485;DHT22;45006;56.958;24.166;2023-02-01T09:08:56;23.30;62.70
54485;DHT22;45006;56.958;24.166;2023-02-01T09:11:23;23.20;62.50
54485;DHT22;45006;56.958;24.166;2023-02-01T09:13:49;23.20;62.60
54485;DHT22;45006;56.958;24.166;2023-02-01T09:16:16;23.20;62.50
54485;DHT22;45006;56.958;24.166;2023-02-01T09:18:43;23.20;62.40
54485;DHT22;45006;56.958;24.166;2023-02-01T09:21:27;23.20;62.50
54485;DHT22;45006;56.958;24.166;2023-02-01T09:23:54;23.20;62.40
54485;DHT22;45006;56.958;24.166;2023-02-01T09:26:20;23.20;62.50
54485;DHT22;45006;56.958;24.166;2023-02-01T09:28:57;23.20;62.40
54485;DHT22;45006;56.958;24.166;2023-02-01T09:31:24;23.20;62.30
54485;DHT22;45006;56.958;24.166;2023-02-01T09:33:51;23.20;62.00
54485;DHT22;45006;56.958;24.166;2023-02-01T09:36:18;23.20;61.90
54485;DHT22;45006;56.958;24.166;2023-02-01T09:38:46;23.20;61.70
54485;DHT22;45006;56.958;24.166;2023-02-01T09:41:24;23.20;61.90
54485;DHT22;45006;56.958;24.166;2023-02-01T09:46:38;23.10;62.20
54485;DHT22;45006;56.958;24.166;2023-02-01T09:49:08;23.10;62.90
54485;DHT22;45006;56.958;24.166;2023-02-01T09:51:38;23.10;62.20
54485;DHT22;45006;56.958;24.166;2023-02-01T09:54:18;23.10;62.10
54485;DHT22;45006;56.958;24.166;2023-02-01T09:59:23;23.10;61.80
54485;DHT22;45006;56.958;24.166;2023-02-01T10:01:51;23.10;61.60
54485;DHT22;45006;56.958;24.166;2023-02-01T10:04:18;23.10;61.60
54485;DHT22;45006;56.958;24.166;2023-02-01T10:19:56;23.10;62.40
54485;DHT22;45006;56.958;24.166;2023-02-01T10:25:43;23.10;61.60
54485;DHT22;45006;56.958;24.166;2023-02-01T10:28:15;23.10;61.60
54485;DHT22;45006;56.958;24.166;2023-02-01T10:30:44;23.10;61.70
54485;DHT22;45006;56.958;24.166;2023-02-01T10:35:40;23.10;61.40
54485;DHT22;45006;56.958;24.166;2023-02-01T10:38:12;23.10;61.30
54485;DHT22;45006;56.958;24.166;2023-02-01T10:40:42;23.10;61.20
54485;DHT22;45006;56.958;24.166;2023-02-01T10:43:09;23.10;61.40
54485;DHT22;45006;56.958;24.166;2023-02-01T10:45:36;23.10;61.20
54485;DHT22;45006;56.958;24.166;2023-02-01T10:48:04;23.10;61.20
54485;DHT22;45006;56.958;24.166;2023-02-01T10:50:35;23.10;61.20
54485;DHT22;45006;56.958;24.166;2023-02-01T10:53:06;23.10;61.20
54485;DHT22;45006;56.958;24.166;2023-02-01T10:55:35;23.10;61.10
54485;DHT22;45006;56.958;24.166;2023-02-01T10:58:07;23.10;61.10
54485;DHT22;45006;56.958;24.166;2023-02-01T11:00:48;23.10;61.20
54485;DHT22;45006;56.958;24.166;2023-02-01T11:05:56;23.10;61.20
54485;DHT22;45006;56.958;24.166;2023-02-01T11:08:23;23.10;61.00
54485;DHT22;45006;56.958;24.166;2023-02-01T11:11:00;23.10;61.00
54485;DHT22;45006;56.958;24.166;2023-02-01T11:13:28;23.10;60.90
54485;DHT22;45006;56.958;24.166;2023-02-01T11:15:58;23.10;60.90
54485;DHT22;45006;56.958;24.166;2023-02-01T11:18:27;23.10;61.40
54485;DHT22;45006;56.958;24.166;2023-02-01T11:20:54;23.10;60.80
54485;DHT22;45006;56.958;24.166;2023-02-01T11:23:23;23.10;60.80
54485;DHT22;45006;56.958;24.166;2023-02-01T11:28:17;23.00;60.60
54485;DHT22;45006;56.958;24.166;2023-02-01T11:30:44;23.10;60.90
54485;DHT22;45006;56.958;24.166;2023-02-01T11:33:12;23.10;60.90
54485;DHT22;45006;56.958;24.166;2023-02-01T11:35:40;23.00;61.00
54485;DHT22;45006;56.958;24.166;2023-02-01T11:38:13;23.00;60.80
54485;DHT22;45006;56.958;24.166;2023-02-01T11:40:43;23.00;61.10
54485;DHT22;45006;56.958;24.166;2023-02-01T11:45:39;23.10;60.90
54485;DHT22;45006;56.958;24.166;2023-02-01T11:48:10;23.00;60.80
54485;DHT22;45006;56.958;24.166;2023-02-01T11:51:30;23.10;61.00
54485;DHT22;45006;56.958;24.166;2023-02-01T11:58:46;23.00;61.40
54485;DHT22;45006;56.958;24.166;2023-02-01T12:09:08;23.00;61.20
54485;DHT22;45006;56.958;24.166;2023-02-01T12:19:37;23.10;61.60
54485;DHT22;45006;56.958;24.166;2023-02-01T12:32:41;23.10;60.90
54485;DHT22;45006;56.958;24.166;2023-02-01T12:48:15;23.00;61.20
54485;DHT22;45006;56.958;24.166;2023-02-01T12:50:44;23.00;61.30
54485;DHT22;45006;56.958;24.166;2023-02-01T12:55:42;23.10;61.20
54485;DHT22;45006;56.958;24.166;2023-02-01T12:58:31;23.00;61.40
54485;DHT22;45006;56.958;24.166;2023-02-01T13:01:00;23.00;61.50
54485;DHT22;45006;56.958;24.166;2023-02-01T13:06:25;23.10;61.40
54485;DHT22;45006;56.958;24.166;2023-02-01T13:11:39;23.00;61.00
54485;DHT22;45006;56.958;24.166;2023-02-01T13:14:35;23.00;61.20
54485;DHT22;45006;56.958;24.166;2023-02-01T13:17:06;23.00;61.50
54485;DHT22;45006;56.958;24.166;2023-02-01T13:19:58;23.00;61.40
54485;DHT22;45006;56.958;24.166;2023-02-01T13:22:33;23.00;61.40
54485;DHT22;45006;56.958;24.166;2023-02-01T13:25:02;23.00;61.30
54485;DHT22;45006;56.958;24.166;2023-02-01T13:27:35;23.00;61.20
54485;DHT22;45006;56.958;24.166;2023-02-01T13:30:10;23.10;61.10
54485;DHT22;45006;56.958;24.166;2023-02-01T13:32:48;23.10;61.20
54485;DHT22;45006;56.958;24.166;2023-02-01T13:38:18;23.00;61.10
54485;DHT22;45006;56.958;24.166;2023-02-01T13:40:53;23.00;61.20
54485;DHT22;45006;56.958;24.166;2023-02-01T13:43:26;23.10;61.20
54485;DHT22;45006;56.958;24.166;2023-02-01T13:45:56;23.00;61.20
54485;DHT22;45006;56.958;24.166;2023-02-01T13:51:09;23.00;61.40
54485;DHT22;45006;56.958;24.166;2023-02-01T13:53:36;23.10;61.40
54485;DHT22;45006;56.958;24.166;2023-02-01T13:56:09;23.10;61.60
54485;DHT22;45006;56.958;24.166;2023-02-01T13:58:38;23.10;61.60
54485;DHT22;45006;56.958;24.166;2023-02-01T14:03:54;23.00;61.70
54485;DHT22;45006;56.958;24.166;2023-02-01T14:14:37;23.00;61.90
54485;DHT22;45006;56.958;24.166;2023-02-01T14:19:24;23.10;62.10
54485;DHT22;45006;56.958;24.166;2023-02-01T14:21:52;23.00;62.10
54485;DHT22;45006;56.958;24.166;2023-02-01T14:24:26;23.00;62.10
54485;DHT22;45006;56.958;24.166;2023-02-01T14:26:58;23.00;62.10
54485;DHT22;45006;56.958;24.166;2023-02-01T14:29:38;23.10;62.20
54485;DHT22;45006;56.958;24.166;2023-02-01T14:32:17;23.00;62.20
54485;DHT22;45006;56.958;24.166;2023-02-01T14:39:53;23.00;62.30
54485;DHT22;45006;56.958;24.166;2023-02-01T14:44:55;23.00;62.40
54485;DHT22;45006;56.958;24.166;2023-02-01T14:47:27;23.00;62.40
54485;DHT22;45006;56.958;24.166;2023-02-01T14:50:00;23.00;62.40
54485;DHT22;45006;56.958;24.166;2023-02-01T14:52:39;23.00;62.50
54485;DHT22;45006;56.958;24.166;2023-02-01T14:55:52;23.00;62.50
54485;DHT22;45006;56.958;24.166;2023-02-01T14:57:59;23.00;62.60
54485;DHT22;45006;56.958;24.166;2023-02-01T15:00:28;23.00;62.60
54485;DHT22;45006;56.958;24.166;2023-02-01T15:03:01;23.00;62.70
54485;DHT22;45006;56.958;24.166;2023-02-01T15:05:41;23.00;62.80
54485;DHT22;45006;56.958;24.166;2023-02-01T15:08:16;23.00;62.70
54485;DHT22;45006;56.958;24.166;2023-02-01T15:10:44;23.00;62.80
54485;DHT22;45006;56.958;24.166;2023-02-01T15:13:18;23.00;62.70
54485;DHT22;45006;56.958;24.166;2023-02-01T15:15:45;23.00;62.70
54485;DHT22;45006;56.958;24.166;2023-02-01T15:18:16;23.00;62.70
54485;DHT22;45006;56.958;24.166;2023-02-01T15:20:50;23.00;62.70
54485;DHT22;45006;56.958;24.166;2023-02-01T15:23:42;23.00;62.80
54485;DHT22;45006;56.958;24.166;2023-02-01T15:26:11;23.00;62.80
54485;DHT22;45006;56.958;24.166;2023-02-01T15:28:37;23.00;62.80
54485;DHT22;45006;56.958;24.166;2023-02-01T15:31:04;23.00;62.80
54485;DHT22;45006;56.958;24.166;2023-02-01T15:33:32;23.00;62.80
54485;DHT22;45006;56.958;24.166;2023-02-01T15:38:33;23.00;62.80
54485;DHT22;45006;56.958;24.166;2023-02-01T15:41:02;23.00;62.80
54485;DHT22;45006;56.958;24.166;2023-02-01T15:43:30;23.00;62.80
54485;DHT22;45006;56.958;24.166;2023-02-01T15:45:59;23.00;62.80
54485;DHT22;45006;56.958;24.166;2023-02-01T15:48:27;23.00;62.70
54485;DHT22;45006;56.958;24.166;2023-02-01T15:50:55;23.00;62.70
54485;DHT22;45006;56.958;24.166;2023-02-01T15:53:23;22.90;62.70
54485;DHT22;45006;56.958;24.166;2023-02-01T15:55:54;23.00;62.70
54485;DHT22;45006;56.958;24.166;2023-02-01T15:58:22;23.00;62.70
54485;DHT22;45006;56.958;24.166;2023-02-01T16:00:51;22.90;62.60
54485;DHT22;45006;56.958;24.166;2023-02-01T16:03:26;23.00;62.60
54485;DHT22;45006;56.958;24.166;2023-02-01T16:05:57;22.90;62.50
54485;DHT22;45006;56.958;24.166;2023-02-01T16:08:26;22.90;62.60
54485;DHT22;45006;56.958;24.166;2023-02-01T16:10:53;22.90;62.60
54485;DHT22;45006;56.958;24.166;2023-02-01T16:13:21;22.90;62.70
54485;DHT22;45006;56.958;24.166;2023-02-01T16:15:48;23.00;62.70
54485;DHT22;45006;56.958;24.166;2023-02-01T16:18:15;22.90;62.60
54485;DHT22;45006;56.958;24.166;2023-02-01T16:20:44;22.90;62.70
54485;DHT22;45006;56.958;24.166;2023-02-01T16:23:11;22.90;62.70
54485;DHT22;45006;56.958;24.166;2023-02-01T16:25:39;22.90;62.70
54485;DHT22;45006;56.958;24.166;2023-02-01T16:28:06;22.90;62.70
54485;DHT22;45006;56.958;24.166;2023-02-01T16:30:32;22.90;62.70
54485;DHT22;45006;56.958;24.166;2023-02-01T16:33:00;22.90;62.60
54485;DHT22;45006;56.958;24.166;2023-02-01T16:35:30;22.90;63.20
54485;DHT22;45006;56.958;24.166;2023-02-01T16:38:05;22.90;62.50
54485;DHT22;45006;56.958;24.166;2023-02-01T16:40:39;22.90;62.40
54485;DHT22;45006;56.958;24.166;2023-02-01T16:43:39;22.90;62.40
54485;DHT22;45006;56.958;24.166;2023-02-01T16:45:59;22.90;62.40
54485;DHT22;45006;56.958;24.166;2023-02-01T16:48:29;22.90;62.40
54485;DHT22;45006;56.958;24.166;2023-02-01T16:50:57;22.90;62.30
54485;DHT22;45006;56.958;24.166;2023-02-01T16:53:24;22.90;62.30
54485;DHT22;45006;56.958;24.166;2023-02-01T16:55:51;22.90;62.30
54485;DHT22;45006;56.958;24.166;2023-02-01T16:58:19;22.90;62.20
54485;DHT22;45006;56.958;24.166;2023-02-01T17:00:46;22.90;62.20
54485;DHT22;45006;56.958;24.166;2023-02-01T17:03:14;22.90;62.20
54485;DHT22;45006;56.958;24.166;2023-02-01T17:05:43;22.90;62.20
54485;DHT22;45006;56.958;24.166;2023-02-01T17:08:13;22.90;62.10
54485;DHT22;45006;56.958;24.166;2023-02-01T17:10:42;22.90;62.10
54485;DHT22;45006;56.958;24.166;2023-02-01T17:13:14;22.90;62.00
54485;DHT22;45006;56.958;24.166;2023-02-01T17:16:42;22.90;62.70
54485;DHT22;45006;56.958;24.166;2023-02-01T17:18:37;22.80;63.40
54485;DHT22;45006;56.958;24.166;2023-02-01T17:21:05;22.70;63.40
54485;DHT22;45006;56.958;24.166;2023-02-01T17:23:33;22.80;63.30
54485;DHT22;45006;56.958;24.166;2023-02-01T17:25:59;22.80;62.90
54485;DHT22;45006;56.958;24.166;2023-02-01T17:28:27;22.80;62.80
54485;DHT22;45006;56.958;24.166;2023-02-01T17:30:54;22.80;62.00
54485;DHT22;45006;56.958;24.166;2023-02-01T17:33:26;22.80;61.60
54485;DHT22;45006;56.958;24.166;2023-02-01T17:36:01;22.80;61.60
54485;DHT22;45006;56.958;24.166;2023-02-01T17:38:29;22.80;62.30
54485;DHT22;45006;56.958;24.166;2023-02-01T17:40:56;22.90;62.50
54485;DHT22;45006;56.958;24.166;2023-02-01T17:43:24;22.90;62.10
54485;DHT22;45006;56.958;24.166;2023-02-01T17:45:52;22.90;61.70
54485;DHT22;45006;56.958;24.166;2023-02-01T17:48:21;22.90;61.80
54485;DHT22;45006;56.958;24.166;2023-02-01T17:50:48;22.90;61.70
54485;DHT22;45006;56.958;24.166;2023-02-01T17:53:18;22.90;61.70
54485;DHT22;45006;56.958;24.166;2023-02-01T17:55:45;22.90;62.00
54485;DHT22;45006;56.958;24.166;2023-02-01T17:58:13;22.90;61.90
54485;DHT22;45006;56.958;24.166;2023-02-01T18:00:40;22.90;61.70